Hartford, Connecticut
Traffic Map
Current Weather Conditions
Hartford, Connecticut
Few Clouds
Few Clouds
60°
Feels Like: 60°
Wind Chill: 60° Ceiling: Unl
Heat Index: 60° Visibility: 10mi
Dew Point: 45° Wind: 5mph
Humidity: 57% Direction: 10° (N)
Pressure: 29.99in Gusts: 0mph
Raw Report DataKHFD 220953Z 01004KT 10SM FEW065 16/07 A2999 RMK AO2 SLP156 T01560072
Traffic Incident Summary
Active as of:
Severity:
Category:
InformationThere was an issue retrieving the traffic information for this location. Please try a different location or try again shortly.
Advertisements